Time;durP1;ratioP1;P1;durP2;ratioP2;P2;SDS_P1;SDS_P2;PMS_P1;PMS_P2;Temp;Humidity;BMP_temperature;BMP_pressure;BME280_temperature;BME280_humidity;BME280_pressure;Samples;Min_cycle;Max_cycle;Signal;HPM_P1;HPM_P2
2021/10/02 00:37:51;;;;;;;7.00;3.80;;;;;;;;;;4999298;28;20026;-66
2021/10/02 00:45:44;;;;;;;7.93;3.83;;;;;;;;;;5005266;28;20119;-68
2021/10/02 00:48:10;;;;;;;7.22;3.70;;;;;;;;;;4997035;28;20469;-67
2021/10/02 00:50:35;;;;;;;6.78;3.78;;;;;;;;;;5005818;28;20058;-67
2021/10/02 00:53:01;;;;;;;5.07;3.47;;;;;;;;;;5006521;28;20359;-68
2021/10/02 00:55:26;;;;;;;5.63;3.97;;;;;;;;;;4996469;28;20541;-67
2021/10/02 00:57:51;;;;;;;7.03;3.92;;;;;;;;;;4999582;28;20018;-68
2021/10/02 01:00:17;;;;;;;6.25;3.70;;;;;;;;;;4999353;28;20026;-67
2021/10/02 01:02:50;;;;;;;6.25;3.63;;;;;;;;;;5015685;28;20034;-66
2021/10/02 01:05:24;;;;;;;6.35;3.80;;;;;;;;;;5004824;28;20028;-67
2021/10/02 01:07:56;;;;;;;5.85;3.70;;;;;;;;;;4995797;28;20035;-67
2021/10/02 01:10:21;;;;;;;4.78;3.30;;;;;;;;;;4992974;28;20109;-67
2021/10/02 01:13:05;;;;;;;5.78;3.58;;;;;;;;;;4994351;28;20121;-66
2021/10/02 01:15:30;;;;;;;6.55;4.00;;;;;;;;;;5002734;28;20520;-66
2021/10/02 01:17:59;;;;;;;5.90;3.55;;;;;;;;;;5006345;28;20030;-67
2021/10/02 01:20:36;;;;;;;6.97;4.20;;;;;;;;;;5000931;28;20277;-67
2021/10/02 01:23:17;;;;;;;6.75;4.10;;;;;;;;;;4995074;28;20049;-66
2021/10/02 01:26:04;;;;;;;6.80;3.70;;;;;;;;;;4997736;28;20097;-66
2021/10/02 01:28:30;;;;;;;5.65;3.85;;;;;;;;;;4999758;28;20041;-67
2021/10/02 01:31:05;;;;;;;6.22;3.83;;;;;;;;;;5001326;28;20022;-67
2021/10/02 01:33:59;;;;;;;5.13;3.60;;;;;;;;;;4998610;28;20492;-66
2021/10/02 01:36:38;;;;;;;7.60;3.85;;;;;;;;;;5000512;28;20041;-67
2021/10/02 01:47:23;;;;;;;6.13;3.63;;;;;;;;;;5001573;28;20033;-66
2021/10/02 01:49:53;;;;;;;6.28;3.78;;;;;;;;;;5004451;28;20156;-66
2021/10/02 01:52:24;;;;;;;5.30;3.72;;;;;;;;;;5000201;28;20033;-67
2021/10/02 01:54:50;;;;;;;4.82;3.30;;;;;;;;;;5000574;28;20032;-65
2021/10/02 01:57:16;;;;;;;5.15;3.67;;;;;;;;;;4997368;28;20471;-66
2021/10/02 01:59:41;;;;;;;6.15;3.88;;;;;;;;;;5000811;28;20046;-66
2021/10/02 02:02:07;;;;;;;5.65;3.72;;;;;;;;;;4996827;28;20036;-67
2021/10/02 02:04:33;;;;;;;6.47;3.92;;;;;;;;;;4999516;28;20045;-66
2021/10/02 02:06:58;;;;;;;5.70;3.55;;;;;;;;;;5007532;28;20021;-67
2021/10/02 02:09:25;;;;;;;6.22;3.50;;;;;;;;;;5007062;28;20097;-68
2021/10/02 02:11:52;;;;;;;5.20;3.25;;;;;;;;;;5007026;28;20033;-67
2021/10/02 02:14:18;;;;;;;6.75;4.30;;;;;;;;;;5006018;28;20029;-67
2021/10/02 02:16:45;;;;;;;5.50;3.30;;;;;;;;;;5003161;28;20031;-66
2021/10/02 02:19:11;;;;;;;6.57;3.60;;;;;;;;;;5003358;28;20125;-68
2021/10/02 02:21:36;;;;;;;4.45;3.10;;;;;;;;;;5003644;28;20111;-67
2021/10/02 02:24:02;;;;;;;5.03;3.42;;;;;;;;;;5003160;28;20094;-67
2021/10/02 02:26:27;;;;;;;4.70;3.13;;;;;;;;;;5006051;28;20092;-66
2021/10/02 02:28:53;;;;;;;4.63;3.17;;;;;;;;;;5005009;28;20832;-66
2021/10/02 02:31:18;;;;;;;6.05;3.70;;;;;;;;;;5006294;28;20106;-65
2021/10/02 02:33:43;;;;;;;5.90;3.90;;;;;;;;;;5019539;28;20034;-67
2021/10/02 02:36:08;;;;;;;7.68;4.05;;;;;;;;;;5014888;28;20049;-66
2021/10/02 02:38:34;;;;;;;6.50;4.00;;;;;;;;;;5008547;28;20156;-67
2021/10/02 02:40:59;;;;;;;7.18;3.85;;;;;;;;;;5005010;28;20018;-67
2021/10/02 02:43:32;;;;;;;5.45;3.67;;;;;;;;;;5007374;28;20385;-66
2021/10/02 02:45:59;;;;;;;5.82;3.55;;;;;;;;;;5003854;28;20501;-66
2021/10/02 02:48:26;;;;;;;5.25;3.28;;;;;;;;;;5000510;28;20065;-67
2021/10/02 02:50:54;;;;;;;5.25;3.28;;;;;;;;;;5002133;28;20029;-66
2021/10/02 02:53:33;;;;;;;6.32;3.72;;;;;;;;;;5001087;28;20469;-67
2021/10/02 02:56:03;;;;;;;5.47;3.37;;;;;;;;;;5002514;28;20076;-66
2021/10/02 02:58:29;;;;;;;4.65;3.10;;;;;;;;;;5004235;28;20301;-66
2021/10/02 03:00:57;;;;;;;5.32;3.28;;;;;;;;;;4997652;28;20536;-66
2021/10/02 03:03:26;;;;;;;4.78;3.25;;;;;;;;;;4997987;28;20026;-67
2021/10/02 03:05:52;;;;;;;4.75;2.92;;;;;;;;;;5002929;28;20124;-67
2021/10/02 03:08:18;;;;;;;4.13;2.90;;;;;;;;;;5006093;28;20116;-67
2021/10/02 03:10:46;;;;;;;4.30;3.20;;;;;;;;;;5001444;28;20107;-67
2021/10/02 03:13:12;;;;;;;4.25;3.17;;;;;;;;;;4994155;28;20030;-67
2021/10/02 03:15:38;;;;;;;4.38;3.03;;;;;;;;;;5003423;28;20545;-66
2021/10/02 03:18:04;;;;;;;5.70;3.58;;;;;;;;;;4999388;28;20056;-65
2021/10/02 03:20:29;;;;;;;6.55;2.88;;;;;;;;;;4996323;28;20113;-66
2021/10/02 03:22:55;;;;;;;5.05;3.50;;;;;;;;;;5003600;28;20036;-67
2021/10/02 03:25:25;;;;;;;4.60;3.00;;;;;;;;;;4995819;28;20188;-67
2021/10/02 03:27:51;;;;;;;5.35;3.53;;;;;;;;;;5001914;28;20611;-66
2021/10/02 03:30:17;;;;;;;7.72;3.08;;;;;;;;;;4999269;28;20351;-67
2021/10/02 03:32:43;;;;;;;4.57;2.85;;;;;;;;;;5001801;28;20041;-69
2021/10/02 03:35:09;;;;;;;4.90;3.08;;;;;;;;;;4994554;28;20030;-67
2021/10/02 03:37:34;;;;;;;5.10;3.10;;;;;;;;;;5000986;28;20084;-66
2021/10/02 03:40:00;;;;;;;6.10;3.55;;;;;;;;;;5006098;28;20077;-66
2021/10/02 03:42:25;;;;;;;5.63;3.38;;;;;;;;;;5000671;28;20064;-67
2021/10/02 03:44:51;;;;;;;5.75;3.40;;;;;;;;;;4991968;28;20429;-67
2021/10/02 03:47:17;;;;;;;7.90;3.30;;;;;;;;;;4999180;28;20050;-67
2021/10/02 03:49:42;;;;;;;5.30;3.17;;;;;;;;;;4994644;28;20037;-67
2021/10/02 03:52:08;;;;;;;6.15;3.50;;;;;;;;;;5004668;28;20104;-66
2021/10/02 03:54:34;;;;;;;4.72;3.03;;;;;;;;;;4994114;28;20034;-65
2021/10/02 03:56:59;;;;;;;6.00;3.40;;;;;;;;;;4997296;28;20358;-65
2021/10/02 03:59:25;;;;;;;5.43;3.00;;;;;;;;;;4995278;28;20050;-66
2021/10/02 04:01:50;;;;;;;6.22;3.40;;;;;;;;;;4998052;28;20030;-66
2021/10/02 04:04:15;;;;;;;4.53;3.50;;;;;;;;;;5006202;28;20033;-67
2021/10/02 04:06:40;;;;;;;7.18;3.78;;;;;;;;;;5004356;28;20261;-66
2021/10/02 04:09:06;;;;;;;5.28;3.70;;;;;;;;;;4997661;28;20138;-67
2021/10/02 04:11:32;;;;;;;5.35;3.53;;;;;;;;;;5003146;28;20037;-66
2021/10/02 04:13:57;;;;;;;7.43;3.28;;;;;;;;;;5006509;28;20057;-66
2021/10/02 04:16:22;;;;;;;7.05;3.78;;;;;;;;;;4999902;28;20054;-66
2021/10/02 04:18:48;;;;;;;5.75;3.78;;;;;;;;;;4996655;28;20034;-66
2021/10/02 04:21:13;;;;;;;6.43;3.58;;;;;;;;;;4998593;28;20418;-67
2021/10/02 04:23:38;;;;;;;5.57;3.50;;;;;;;;;;4999664;28;20046;-66
2021/10/02 04:26:03;;;;;;;5.30;3.45;;;;;;;;;;4995872;28;20450;-67
2021/10/02 04:28:28;;;;;;;6.03;3.83;;;;;;;;;;5002204;28;20014;-65
2021/10/02 04:30:54;;;;;;;5.40;3.55;;;;;;;;;;5001788;28;20014;-66
2021/10/02 04:33:19;;;;;;;6.25;3.70;;;;;;;;;;4998880;28;20067;-66
2021/10/02 04:35:44;;;;;;;6.28;3.63;;;;;;;;;;5005298;28;20025;-67
2021/10/02 04:38:09;;;;;;;5.03;3.73;;;;;;;;;;4994828;28;20113;-67
2021/10/02 04:40:34;;;;;;;6.32;4.07;;;;;;;;;;5005705;28;20338;-67
2021/10/02 04:43:00;;;;;;;5.05;3.72;;;;;;;;;;5002711;28;20121;-66
2021/10/02 04:45:25;;;;;;;4.95;3.55;;;;;;;;;;5001558;28;20498;-68
2021/10/02 04:47:50;;;;;;;5.28;3.92;;;;;;;;;;4995944;28;20010;-67
2021/10/02 04:50:15;;;;;;;6.00;3.70;;;;;;;;;;4999972;28;20116;-67
2021/10/02 04:52:40;;;;;;;4.95;3.45;;;;;;;;;;4995872;28;20030;-67
2021/10/02 04:55:06;;;;;;;5.15;3.00;;;;;;;;;;5003181;28;20091;-67
2021/10/02 04:57:31;;;;;;;5.20;3.55;;;;;;;;;;4992552;28;20072;-66
2021/10/02 04:59:56;;;;;;;5.40;3.85;;;;;;;;;;4996162;28;20068;-67
2021/10/02 05:02:22;;;;;;;5.38;3.47;;;;;;;;;;5003301;28;20394;-66
2021/10/02 05:04:47;;;;;;;5.15;3.08;;;;;;;;;;5003118;28;20034;-67
2021/10/02 05:07:12;;;;;;;5.32;3.67;;;;;;;;;;5001336;28;20228;-67
2021/10/02 05:09:40;;;;;;;5.05;3.42;;;;;;;;;;4999839;28;20044;-67
2021/10/02 05:12:06;;;;;;;6.13;3.28;;;;;;;;;;5004088;28;20114;-66
2021/10/02 05:14:31;;;;;;;4.75;3.35;;;;;;;;;;5002621;28;20568;-67
2021/10/02 05:16:56;;;;;;;6.10;3.58;;;;;;;;;;5000081;28;20411;-67
2021/10/02 05:19:21;;;;;;;6.07;3.75;;;;;;;;;;5002495;28;20053;-67
2021/10/02 05:21:46;;;;;;;6.20;4.00;;;;;;;;;;4994645;28;20466;-67
2021/10/02 05:24:11;;;;;;;5.95;3.83;;;;;;;;;;4998664;28;20092;-66
2021/10/02 05:26:37;;;;;;;5.43;4.13;;;;;;;;;;4995174;28;20623;-66
2021/10/02 05:29:02;;;;;;;5.90;3.28;;;;;;;;;;4999095;28;20042;-67
2021/10/02 05:31:27;;;;;;;5.80;3.93;;;;;;;;;;4996746;28;20050;-67
2021/10/02 05:33:52;;;;;;;6.03;3.78;;;;;;;;;;5000973;28;20286;-67
2021/10/02 05:36:17;;;;;;;7.65;4.10;;;;;;;;;;4999788;28;20061;-67
2021/10/02 05:38:42;;;;;;;8.00;4.40;;;;;;;;;;5001430;28;20038;-67
2021/10/02 05:41:08;;;;;;;5.60;3.88;;;;;;;;;;5005474;28;20041;-67
2021/10/02 05:43:33;;;;;;;7.20;4.40;;;;;;;;;;5004721;28;20045;-67
2021/10/02 05:45:58;;;;;;;7.47;4.20;;;;;;;;;;5007305;28;20033;-66
2021/10/02 05:48:23;;;;;;;6.47;4.00;;;;;;;;;;5007848;28;20465;-67
2021/10/02 05:50:48;;;;;;;6.78;4.20;;;;;;;;;;5006877;28;20273;-67
2021/10/02 05:53:13;;;;;;;6.20;4.03;;;;;;;;;;5005336;28;20029;-68
2021/10/02 05:55:39;;;;;;;6.75;3.55;;;;;;;;;;5004705;28;20647;-67
2021/10/02 05:58:04;;;;;;;6.90;3.75;;;;;;;;;;5005435;28;20030;-67
2021/10/02 06:00:29;;;;;;;6.13;3.72;;;;;;;;;;5003622;28;21975;-69
2021/10/02 06:02:56;;;;;;;6.28;3.72;;;;;;;;;;5008559;28;20026;-67
2021/10/02 06:05:26;;;;;;;7.10;3.75;;;;;;;;;;5005672;28;20367;-67
2021/10/02 06:07:51;;;;;;;5.80;3.67;;;;;;;;;;5006739;28;20040;-67
2021/10/02 06:10:16;;;;;;;5.40;3.70;;;;;;;;;;5003687;28;20022;-67
2021/10/02 06:12:41;;;;;;;5.13;3.40;;;;;;;;;;5008033;28;20273;-67
2021/10/02 06:15:07;;;;;;;5.97;3.80;;;;;;;;;;5008932;28;20436;-66
2021/10/02 06:17:32;;;;;;;7.10;3.63;;;;;;;;;;5000788;28;20041;-66
2021/10/02 06:19:57;;;;;;;6.15;3.85;;;;;;;;;;5005561;28;20033;-67
2021/10/02 06:22:22;;;;;;;5.43;3.53;;;;;;;;;;5003562;28;20761;-67
2021/10/02 06:24:47;;;;;;;7.93;3.95;;;;;;;;;;5005906;28;20303;-66
2021/10/02 06:27:12;;;;;;;9.43;3.70;;;;;;;;;;5005586;28;20437;-67
2021/10/02 06:29:38;;;;;;;5.95;3.65;;;;;;;;;;5004492;28;20057;-66
2021/10/02 06:32:03;;;;;;;6.45;3.40;;;;;;;;;;4999496;28;20713;-67
2021/10/02 06:34:28;;;;;;;5.45;3.58;;;;;;;;;;5007569;28;20029;-66
2021/10/02 06:36:53;;;;;;;6.00;3.60;;;;;;;;;;5002102;28;20022;-67
2021/10/02 06:39:18;;;;;;;6.78;3.80;;;;;;;;;;5002689;28;20049;-67
2021/10/02 06:41:44;;;;;;;6.35;3.58;;;;;;;;;;5006476;28;20053;-67
2021/10/02 06:44:11;;;;;;;5.25;3.35;;;;;;;;;;5003500;28;20124;-66
2021/10/02 06:46:36;;;;;;;6.30;3.42;;;;;;;;;;5004510;28;20029;-67
2021/10/02 06:49:01;;;;;;;6.55;3.55;;;;;;;;;;4998674;28;20033;-66
2021/10/02 06:51:26;;;;;;;5.20;3.17;;;;;;;;;;5002545;28;20036;-66
2021/10/02 06:53:51;;;;;;;5.53;3.47;;;;;;;;;;5006071;28;20317;-66
2021/10/02 06:56:17;;;;;;;7.20;3.25;;;;;;;;;;4997267;28;20026;-66
2021/10/02 06:58:42;;;;;;;5.13;2.97;;;;;;;;;;4998812;28;20060;-67
2021/10/02 07:01:07;;;;;;;7.40;3.63;;;;;;;;;;5003554;28;20349;-66
2021/10/02 07:03:32;;;;;;;5.13;3.30;;;;;;;;;;5002667;28;20045;-67
2021/10/02 07:05:57;;;;;;;5.45;3.42;;;;;;;;;;4998488;28;20273;-67
2021/10/02 07:08:22;;;;;;;5.43;3.17;;;;;;;;;;5001632;28;20053;-67
2021/10/02 07:10:48;;;;;;;7.17;3.30;;;;;;;;;;4997906;28;20833;-68
2021/10/02 07:13:14;;;;;;;5.25;2.92;;;;;;;;;;4998942;28;20276;-69
2021/10/02 07:15:39;;;;;;;6.38;3.15;;;;;;;;;;5005619;28;20030;-67
2021/10/02 07:18:04;;;;;;;6.20;2.80;;;;;;;;;;4997595;28;20117;-59
2021/10/02 07:20:29;;;;;;;5.50;2.77;;;;;;;;;;4999969;28;20476;-59
2021/10/02 07:22:54;;;;;;;4.50;3.00;;;;;;;;;;5005846;28;20777;-59
2021/10/02 07:25:22;;;;;;;4.87;3.10;;;;;;;;;;4997662;28;20022;-60
2021/10/02 07:27:48;;;;;;;4.15;2.88;;;;;;;;;;4992261;28;20317;-59
2021/10/02 07:30:13;;;;;;;8.55;2.80;;;;;;;;;;4992868;28;20041;-59
2021/10/02 07:32:38;;;;;;;5.05;2.72;;;;;;;;;;4993426;28;20022;-60
2021/10/02 07:35:05;;;;;;;4.40;2.80;;;;;;;;;;5002005;28;20101;-59
2021/10/02 07:37:30;;;;;;;4.03;2.88;;;;;;;;;;4989994;28;20381;-59
2021/10/02 07:39:55;;;;;;;5.53;3.07;;;;;;;;;;4996313;28;20330;-59
2021/10/02 07:42:20;;;;;;;4.53;3.03;;;;;;;;;;4995918;28;20285;-58
2021/10/02 07:44:50;;;;;;;4.97;3.03;;;;;;;;;;4999635;28;20086;-59
2021/10/02 07:47:16;;;;;;;5.80;3.10;;;;;;;;;;5004260;28;20052;-60
2021/10/02 07:49:42;;;;;;;6.35;3.30;;;;;;;;;;4996512;28;20077;-60
2021/10/02 07:52:07;;;;;;;5.45;3.03;;;;;;;;;;5000822;28;20421;-60
2021/10/02 07:54:32;;;;;;;6.28;2.90;;;;;;;;;;5009457;28;20045;-60
2021/10/02 07:56:58;;;;;;;6.10;3.10;;;;;;;;;;5002790;28;20029;-60
2021/10/02 07:59:23;;;;;;;3.88;2.92;;;;;;;;;;4995315;28;20064;-59
2021/10/02 08:01:49;;;;;;;7.80;3.40;;;;;;;;;;4995637;28;20054;-59
2021/10/02 08:04:14;;;;;;;5.40;2.95;;;;;;;;;;4989821;28;20034;-58
2021/10/02 08:06:39;;;;;;;4.80;2.92;;;;;;;;;;4996976;28;20030;-60
2021/10/02 08:09:04;;;;;;;5.20;3.58;;;;;;;;;;4991214;28;20041;-60
2021/10/02 08:11:30;;;;;;;7.05;3.65;;;;;;;;;;4993282;28;20027;-59
2021/10/02 08:13:55;;;;;;;7.00;3.60;;;;;;;;;;4990392;28;20034;-60
2021/10/02 08:16:25;;;;;;;6.45;3.70;;;;;;;;;;4991831;28;20518;-59
2021/10/02 08:18:52;;;;;;;5.07;3.70;;;;;;;;;;4991825;28;20030;-59
2021/10/02 08:21:18;;;;;;;5.32;3.85;;;;;;;;;;4990132;28;20053;-59
2021/10/02 08:23:44;;;;;;;6.90;3.35;;;;;;;;;;4990071;28;20126;-59
2021/10/02 08:26:14;;;;;;;7.03;4.10;;;;;;;;;;4990024;28;20390;-57
2021/10/02 08:28:43;;;;;;;5.60;3.60;;;;;;;;;;4999350;28;20071;-60
2021/10/02 08:31:08;;;;;;;5.28;3.63;;;;;;;;;;4989334;28;20022;-58
2021/10/02 08:33:33;;;;;;;5.53;3.95;;;;;;;;;;4994974;28;20522;-58
2021/10/02 08:35:58;;;;;;;6.30;3.70;;;;;;;;;;4993877;28;20512;-59
2021/10/02 08:38:23;;;;;;;6.07;3.57;;;;;;;;;;4996289;28;20376;-60
2021/10/02 08:40:49;;;;;;;6.07;4.20;;;;;;;;;;5000816;28;20734;-60
2021/10/02 08:43:15;;;;;;;6.65;4.00;;;;;;;;;;4994588;28;20300;-59
2021/10/02 08:45:40;;;;;;;6.10;3.70;;;;;;;;;;4995698;28;20018;-58
2021/10/02 08:48:11;;;;;;;7.90;4.13;;;;;;;;;;4994272;28;20026;-58
2021/10/02 08:50:39;;;;;;;9.38;4.63;;;;;;;;;;4996006;28;20026;-58
2021/10/02 08:53:04;;;;;;;6.30;3.72;;;;;;;;;;4993546;28;20072;-58
2021/10/02 08:55:29;;;;;;;8.75;3.88;;;;;;;;;;4990679;28;20375;-59
2021/10/02 08:57:54;;;;;;;7.00;4.13;;;;;;;;;;4995661;28;20030;-61
2021/10/02 09:00:22;;;;;;;7.18;4.40;;;;;;;;;;4998965;28;20039;-60
2021/10/02 09:02:48;;;;;;;4.75;3.70;;;;;;;;;;4998406;28;20025;-59
2021/10/02 09:05:13;;;;;;;7.05;3.67;;;;;;;;;;4991662;28;20038;-59
2021/10/02 09:07:38;;;;;;;7.55;4.70;;;;;;;;;;4992499;28;20026;-59
2021/10/02 09:10:06;;;;;;;6.47;4.00;;;;;;;;;;5002711;28;20017;-60
2021/10/02 09:12:32;;;;;;;4.90;3.60;;;;;;;;;;4996194;28;20104;-59
2021/10/02 09:14:57;;;;;;;6.57;3.72;;;;;;;;;;5012526;28;20034;-60
2021/10/02 09:17:23;;;;;;;5.55;3.85;;;;;;;;;;4992986;28;20580;-60
2021/10/02 09:19:48;;;;;;;7.05;3.78;;;;;;;;;;5001845;28;20022;-60
2021/10/02 09:22:14;;;;;;;5.43;3.90;;;;;;;;;;4998289;28;20585;-60
2021/10/02 09:24:42;;;;;;;5.47;3.45;;;;;;;;;;4998251;28;20073;-59
2021/10/02 09:27:12;;;;;;;5.05;3.72;;;;;;;;;;4999539;28;20030;-59
2021/10/02 09:29:39;;;;;;;5.65;3.53;;;;;;;;;;4992721;28;20023;-59
2021/10/02 09:32:04;;;;;;;5.40;3.42;;;;;;;;;;5010332;28;20018;-59
2021/10/02 09:34:29;;;;;;;5.32;3.53;;;;;;;;;;4995259;28;20466;-58
2021/10/02 09:36:55;;;;;;;4.60;3.75;;;;;;;;;;4999989;28;20018;-59
2021/10/02 09:39:20;;;;;;;4.87;3.70;;;;;;;;;;4994094;28;20505;-58
2021/10/02 09:41:46;;;;;;;7.47;3.42;;;;;;;;;;5006717;28;20264;-59
2021/10/02 09:44:19;;;;;;;4.75;3.40;;;;;;;;;;4997354;28;20953;-59
2021/10/02 09:46:44;;;;;;;6.20;3.75;;;;;;;;;;5002214;28;20026;-58
2021/10/02 09:49:10;;;;;;;4.33;3.10;;;;;;;;;;5001184;28;20026;-59
2021/10/02 09:51:38;;;;;;;4.50;3.10;;;;;;;;;;4992642;28;20899;-59
2021/10/02 09:54:04;;;;;;;5.32;3.25;;;;;;;;;;4998090;28;20285;-59
2021/10/02 09:56:29;;;;;;;4.20;3.00;;;;;;;;;;4998754;28;20022;-59
2021/10/02 09:58:54;;;;;;;4.27;3.03;;;;;;;;;;4991789;28;20046;-59
2021/10/02 10:01:20;;;;;;;4.60;3.10;;;;;;;;;;5000491;28;20273;-60
2021/10/02 10:03:46;;;;;;;5.60;3.05;;;;;;;;;;4995592;28;20301;-60
2021/10/02 10:06:16;;;;;;;5.65;3.80;;;;;;;;;;5001516;28;20641;-59
2021/10/02 10:08:41;;;;;;;5.53;3.10;;;;;;;;;;4992669;28;20023;-61
2021/10/02 10:11:08;;;;;;;4.68;3.05;;;;;;;;;;4995593;28;20112;-60
2021/10/02 10:13:33;;;;;;;4.95;3.00;;;;;;;;;;4995502;28;20064;-62
2021/10/02 10:15:58;;;;;;;4.60;2.67;;;;;;;;;;5000203;28;20057;-59
2021/10/02 10:18:27;;;;;;;4.47;2.70;;;;;;;;;;5001177;28;20768;-58
2021/10/02 10:21:00;;;;;;;4.55;2.70;;;;;;;;;;4998384;28;20033;-59
2021/10/02 10:23:27;;;;;;;3.50;2.60;;;;;;;;;;5001928;28;20390;-59
2021/10/02 10:25:53;;;;;;;4.18;3.00;;;;;;;;;;5002067;28;20038;-59
2021/10/02 10:28:19;;;;;;;5.15;2.40;;;;;;;;;;4998138;28;20433;-59
2021/10/02 10:30:47;;;;;;;4.53;2.60;;;;;;;;;;4995388;28;20413;-58
2021/10/02 10:33:12;;;;;;;4.35;2.60;;;;;;;;;;4997267;28;20350;-59
2021/10/02 10:35:40;;;;;;;3.95;2.53;;;;;;;;;;4995470;28;20034;-58
2021/10/02 10:38:06;;;;;;;4.25;2.65;;;;;;;;;;5002971;28;20018;-59
2021/10/02 10:40:32;;;;;;;3.92;2.80;;;;;;;;;;4996952;28;20109;-59
2021/10/02 10:42:57;;;;;;;4.13;2.53;;;;;;;;;;4991457;28;20105;-60
2021/10/02 10:45:23;;;;;;;4.43;2.63;;;;;;;;;;5002780;28;20030;-60
2021/10/02 10:47:48;;;;;;;4.75;2.55;;;;;;;;;;4993977;28;20297;-59
2021/10/02 10:50:13;;;;;;;5.72;2.83;;;;;;;;;;5002219;28;20097;-59
2021/10/02 10:52:40;;;;;;;4.18;2.60;;;;;;;;;;4998080;28;20029;-60
2021/10/02 10:55:16;;;;;;;7.40;2.65;;;;;;;;;;4993919;28;20018;-59
2021/10/02 10:57:43;;;;;;;3.00;2.10;;;;;;;;;;4994385;28;20843;-61
2021/10/02 11:00:14;;;;;;;2.92;2.10;;;;;;;;;;4998886;28;20052;-61
2021/10/02 11:03:07;;;;;;;3.53;1.90;;;;;;;;;;5002060;28;20056;-59
2021/10/02 11:05:35;;;;;;;3.35;2.15;;;;;;;;;;4992584;28;20042;-59
2021/10/02 11:08:01;;;;;;;2.58;1.58;;;;;;;;;;5006998;28;20018;-60
2021/10/02 11:10:44;;;;;;;2.80;1.65;;;;;;;;;;5002963;28;20496;-58
2021/10/02 11:13:30;;;;;;;2.53;1.90;;;;;;;;;;5013629;28;20033;-60
2021/10/02 11:15:58;;;;;;;4.30;2.30;;;;;;;;;;4996626;28;20117;-60
2021/10/02 11:18:39;;;;;;;3.90;2.35;;;;;;;;;;4993784;28;20113;-60
2021/10/02 11:21:04;;;;;;;3.38;2.33;;;;;;;;;;4999828;28;20049;-58
2021/10/02 11:23:38;;;;;;;3.25;2.20;;;;;;;;;;4999022;28;20466;-60
2021/10/02 11:26:14;;;;;;;3.85;2.47;;;;;;;;;;5001225;28;20497;-60
2021/10/02 11:28:40;;;;;;;3.13;2.53;;;;;;;;;;4991217;28;20025;-59
2021/10/02 11:31:21;;;;;;;3.80;2.80;;;;;;;;;;4998371;28;20034;-60
2021/10/02 11:33:48;;;;;;;4.10;2.35;;;;;;;;;;4996212;28;20095;-59
2021/10/02 11:36:32;;;;;;;4.57;2.60;;;;;;;;;;4991358;28;20129;-59
2021/10/02 11:39:12;;;;;;;3.53;2.50;;;;;;;;;;4997295;28;20010;-60
2021/10/02 11:41:39;;;;;;;4.85;2.67;;;;;;;;;;5000762;28;20030;-58
2021/10/02 11:44:04;;;;;;;3.97;2.42;;;;;;;;;;4999588;28;20038;-60
2021/10/02 11:46:29;;;;;;;3.90;2.60;;;;;;;;;;4998700;28;20042;-59
2021/10/02 11:49:10;;;;;;;3.70;2.13;;;;;;;;;;4996059;28;20034;-58
2021/10/02 11:51:36;;;;;;;3.05;2.45;;;;;;;;;;5009082;28;20026;-60
2021/10/02 11:54:07;;;;;;;4.17;2.80;;;;;;;;;;4995940;28;20027;-59
2021/10/02 11:56:34;;;;;;;3.72;2.78;;;;;;;;;;5000727;28;20300;-60
2021/10/02 11:58:59;;;;;;;4.07;2.85;;;;;;;;;;4998672;28;20046;-60
2021/10/02 12:01:28;;;;;;;3.75;2.65;;;;;;;;;;4997946;28;20402;-59
2021/10/02 12:03:58;;;;;;;4.32;2.80;;;;;;;;;;5002424;28;20052;-60
2021/10/02 12:06:23;;;;;;;4.53;2.97;;;;;;;;;;4997683;28;20030;-59
2021/10/02 12:08:49;;;;;;;3.97;3.10;;;;;;;;;;5000068;28;20390;-59
2021/10/02 12:11:14;;;;;;;5.43;2.90;;;;;;;;;;4998148;28;20285;-59
2021/10/02 12:13:45;;;;;;;4.23;2.73;;;;;;;;;;4997322;28;20068;-60
2021/10/02 12:16:12;;;;;;;4.28;3.05;;;;;;;;;;5002584;28;20280;-60
2021/10/02 12:18:44;;;;;;;6.03;3.15;;;;;;;;;;4990409;28;20040;-61
2021/10/02 12:21:21;;;;;;;4.78;3.20;;;;;;;;;;4997858;28;20040;-59
2021/10/02 12:23:49;;;;;;;4.60;3.25;;;;;;;;;;4998731;28;20026;-60
2021/10/02 12:26:15;;;;;;;4.03;3.20;;;;;;;;;;4994943;28;20474;-59
2021/10/02 12:28:40;;;;;;;4.13;3.25;;;;;;;;;;4997171;28;20084;-60
2021/10/02 12:31:05;;;;;;;3.97;3.03;;;;;;;;;;4999810;28;20037;-61
2021/10/02 12:33:30;;;;;;;6.25;3.15;;;;;;;;;;4998173;28;20388;-60
2021/10/02 12:35:55;;;;;;;3.97;3.00;;;;;;;;;;4994148;28;20139;-59
2021/10/02 12:38:21;;;;;;;4.32;3.10;;;;;;;;;;4996618;28;20342;-60
2021/10/02 12:40:51;;;;;;;5.00;3.13;;;;;;;;;;5002138;28;20037;-59
2021/10/02 12:43:16;;;;;;;3.72;2.83;;;;;;;;;;5002487;28;20389;-57
2021/10/02 12:45:41;;;;;;;5.20;2.97;;;;;;;;;;4989364;28;20030;-60
2021/10/02 12:48:11;;;;;;;4.90;3.45;;;;;;;;;;5001822;28;20114;-62
2021/10/02 12:50:38;;;;;;;4.70;3.15;;;;;;;;;;4990654;28;20073;-62
2021/10/02 12:53:03;;;;;;;4.43;3.10;;;;;;;;;;4999105;28;20030;-61
2021/10/02 12:55:28;;;;;;;6.30;3.20;;;;;;;;;;5004945;28;20026;-62
2021/10/02 12:57:54;;;;;;;4.88;3.20;;;;;;;;;;4999866;28;20080;-60
2021/10/02 13:00:30;;;;;;;6.68;3.60;;;;;;;;;;5003855;28;20133;-60
2021/10/02 13:03:04;;;;;;;5.75;3.45;;;;;;;;;;5004692;28;20097;-59
2021/10/02 13:05:32;;;;;;;5.40;3.60;;;;;;;;;;5002006;28;20419;-60
2021/10/02 13:07:59;;;;;;;4.35;3.00;;;;;;;;;;4995047;28;20041;-58
2021/10/02 13:10:27;;;;;;;4.70;3.08;;;;;;;;;;5003022;28;20482;-59
2021/10/02 13:12:57;;;;;;;4.22;3.30;;;;;;;;;;4990784;28;20023;-60
2021/10/02 13:15:24;;;;;;;;;;;;;;;;;;5000038;28;20051;-58
2021/10/02 13:17:55;;;;;;;7.07;3.38;;;;;;;;;;4991676;28;20366;-60
2021/10/02 13:20:21;;;;;;;4.90;3.50;;;;;;;;;;4989329;28;20038;-60
2021/10/02 13:22:48;;;;;;;4.80;3.33;;;;;;;;;;4998403;28;20026;-61
2021/10/02 13:25:23;;;;;;;8.10;3.58;;;;;;;;;;5001987;28;20052;-60
2021/10/02 13:27:50;;;;;;;4.88;3.45;;;;;;;;;;4997890;28;20023;-62
2021/10/02 13:30:17;;;;;;;5.30;3.40;;;;;;;;;;4991528;28;20066;-62
2021/10/02 13:32:53;;;;;;;5.28;3.35;;;;;;;;;;4994443;28;20556;-61
2021/10/02 13:35:20;;;;;;;4.13;3.15;;;;;;;;;;4989531;28;20048;-61
2021/10/02 13:37:45;;;;;;;4.60;2.85;;;;;;;;;;4997572;28;20040;-61
2021/10/02 13:40:31;;;;;;;5.68;2.60;;;;;;;;;;4997334;28;20023;-60
2021/10/02 13:42:57;;;;;;;5.55;3.33;;;;;;;;;;4996258;28;20510;-58
2021/10/02 13:45:23;;;;;;;4.82;2.67;;;;;;;;;;4998009;28;20089;-59
2021/10/02 13:47:56;;;;;;;3.63;2.95;;;;;;;;;;4997064;28;20030;-59
2021/10/02 13:50:21;;;;;;;4.03;3.15;;;;;;;;;;4989462;28;20066;-61
2021/10/02 13:52:47;;;;;;;5.63;3.73;;;;;;;;;;4991806;28;20474;-58
2021/10/02 13:55:12;;;;;;;5.65;3.45;;;;;;;;;;4996452;28;20283;-59
2021/10/02 13:57:37;;;;;;;4.43;3.10;;;;;;;;;;4993266;28;20026;-59
2021/10/02 14:00:03;;;;;;;6.93;3.27;;;;;;;;;;5002433;28;20814;-57
2021/10/02 14:02:28;;;;;;;4.95;3.00;;;;;;;;;;5008384;28;20379;-59
2021/10/02 14:04:53;;;;;;;6.63;3.30;;;;;;;;;;5002563;28;20073;-62
2021/10/02 14:07:18;;;;;;;4.33;3.10;;;;;;;;;;5008207;28;20022;-59
2021/10/02 14:09:43;;;;;;;4.73;2.77;;;;;;;;;;4992961;28;20173;-61
2021/10/02 14:12:12;;;;;;;5.80;2.87;;;;;;;;;;5000201;28;21141;-61
2021/10/02 14:14:40;;;;;;;3.28;2.50;;;;;;;;;;5003887;28;20372;-63
2021/10/02 14:17:05;;;;;;;4.60;3.17;;;;;;;;;;5006293;28;20511;-61
2021/10/02 14:19:30;;;;;;;6.27;3.03;;;;;;;;;;5002557;28;20034;-62
2021/10/02 14:21:55;;;;;;;6.17;3.17;;;;;;;;;;4992253;28;20093;-61
2021/10/02 14:24:20;;;;;;;4.50;3.10;;;;;;;;;;4992275;28;20065;-63
2021/10/02 14:26:46;;;;;;;3.80;3.00;;;;;;;;;;5002683;28;20268;-62
2021/10/02 14:29:11;;;;;;;5.78;2.90;;;;;;;;;;4998044;28;20494;-61
2021/10/02 14:31:36;;;;;;;4.25;3.28;;;;;;;;;;5002979;28;20026;-59
2021/10/02 14:34:02;;;;;;;4.70;3.20;;;;;;;;;;4992721;28;20030;-61
2021/10/02 14:36:28;;;;;;;5.25;2.80;;;;;;;;;;5003986;28;20021;-59
2021/10/02 14:38:53;;;;;;;5.55;2.90;;;;;;;;;;4998640;28;20030;-60
2021/10/02 14:41:18;;;;;;;4.20;2.97;;;;;;;;;;4996542;28;20069;-59
2021/10/02 14:43:43;;;;;;;4.20;2.60;;;;;;;;;;4991421;28;20439;-60
2021/10/02 14:46:09;;;;;;;4.57;3.10;;;;;;;;;;4998599;28;20023;-58
2021/10/02 14:48:34;;;;;;;4.05;3.13;;;;;;;;;;4999584;28;20493;-59
2021/10/02 14:50:59;;;;;;;3.47;2.67;;;;;;;;;;5000364;28;20072;-59
2021/10/02 14:53:26;;;;;;;5.15;2.83;;;;;;;;;;4994725;28;20846;-59
2021/10/02 14:55:51;;;;;;;3.72;2.78;;;;;;;;;;4991650;28;20026;-60
2021/10/02 14:58:17;;;;;;;3.45;2.53;;;;;;;;;;4992989;28;20085;-59
2021/10/02 15:00:46;;;;;;;3.47;2.67;;;;;;;;;;5001106;28;20044;-59
2021/10/02 15:03:11;;;;;;;4.78;2.85;;;;;;;;;;5010182;28;20089;-59
2021/10/02 15:05:36;;;;;;;3.87;2.50;;;;;;;;;;5010170;28;20030;-59
2021/10/02 15:08:02;;;;;;;3.78;2.80;;;;;;;;;;5010351;28;20026;-60
2021/10/02 15:10:29;;;;;;;5.07;3.28;;;;;;;;;;5003950;28;20026;-59
2021/10/02 15:12:55;;;;;;;4.25;3.13;;;;;;;;;;4998590;28;20482;-59
2021/10/02 15:15:20;;;;;;;3.83;2.70;;;;;;;;;;4993589;28;20064;-62
2021/10/02 15:17:45;;;;;;;4.23;3.17;;;;;;;;;;4995236;28;20030;-61
2021/10/02 15:20:11;;;;;;;4.85;2.97;;;;;;;;;;4995642;28;20338;-61
2021/10/02 15:22:37;;;;;;;6.57;3.33;;;;;;;;;;4992543;28;20022;-61
2021/10/02 15:25:05;;;;;;;9.88;3.35;;;;;;;;;;4991226;28;20042;-61
2021/10/02 15:27:32;;;;;;;6.10;3.28;;;;;;;;;;4999969;28;20060;-62
2021/10/02 15:29:58;;;;;;;4.78;3.67;;;;;;;;;;4992969;28;20381;-61
2021/10/02 15:32:24;;;;;;;4.30;3.40;;;;;;;;;;4990665;28;20023;-61